Station Historical Data
Daily Summary for September 14, 2017 Units:  English    Metric   Both
« Previous Day
Next Day »
Daily Weekly Monthly Yearly Custom
  High: Low: Average:
Temperature: 66.6 °F 56.4 °F 61.5 °F
Dew Point: 56.9 °F 51.6 °F 54.8 °F
Humidity: 85 % 69 % 79 %
Wind Speed: 12.0 mph 0.0 mph 2.3 mph
Wind Gust: 18.0 mph - -
Wind:- - South
Pressure: 29.89 in 29.76 in -
Precipitation: 0.00 in    
Historical Graphs
 
 
Tabular Data for September 14, 2017
Time Temperature Dew Point Pressure Wind Wind Speed Wind Gust Humidity Rainfall Rate (Hourly) solar
00:01 62.8 °F 56.2 °F 29.76 in South 2.0 mph 4.0 mph 79 % 0.00 in 0.00 W/m2
00:06 62.7 °F 56.1 °F 29.76 in South 2.0 mph 2.0 mph 79 % 0.00 in 0.00 W/m2
00:11 62.6 °F 56.7 °F 29.76 in South 5.0 mph 6.0 mph 81 % 0.00 in 0.00 W/m2
00:16 62.5 °F 55.9 °F 29.77 in Calm     79 % 0.00 in 0.00 W/m2
00:21 62.4 °F 55.8 °F 29.77 in Calm     79 % 0.00 in 0.00 W/m2
00:26 62.3 °F 56.1 °F 29.77 in Calm     80 % 0.00 in 0.00 W/m2
00:31 62.2 °F 56.0 °F 29.77 in Calm     80 % 0.00 in 0.00 W/m2
00:36 62.2 °F 56.0 °F 29.77 in Calm     80 % 0.00 in 0.00 W/m2
00:41 62.1 °F 55.9 °F 29.77 in Calm     80 % 0.00 in 0.00 W/m2
00:46 62.0 °F 55.8 °F 29.77 in Calm     80 % 0.00 in 0.00 W/m2
00:51 61.9 °F 55.7 °F 29.77 in South 5.0 mph 6.0 mph 80 % 0.00 in 0.00 W/m2
00:56 61.9 °F 55.3 °F 29.77 in South 8.0 mph 8.0 mph 79 % 0.00 in 0.00 W/m2
01:01 61.7 °F 55.1 °F 29.76 in South 7.0 mph 10.0 mph 79 % 0.00 in 0.00 W/m2
01:06 61.6 °F 55.0 °F 29.77 in South 5.0 mph 9.0 mph 79 % 0.00 in 0.00 W/m2
01:11 61.5 °F 55.3 °F 29.76 in South 2.0 mph 5.0 mph 80 % 0.00 in 0.00 W/m2
01:17 61.3 °F 55.1 °F 29.76 in SSE 2.0 mph 8.0 mph 80 % 0.00 in 0.00 W/m2
01:22 61.2 °F 55.0 °F 29.76 in SSE 6.0 mph 9.0 mph 80 % 0.00 in 0.00 W/m2
01:27 61.1 °F 54.9 °F 29.76 in SSE 4.0 mph 8.0 mph 80 % 0.00 in 0.00 W/m2
01:32 60.9 °F 54.7 °F 29.76 in SSE 8.0 mph 8.0 mph 80 % 0.00 in 0.00 W/m2
01:37 60.8 °F 54.6 °F 29.76 in SSE 6.0 mph 8.0 mph 80 % 0.00 in 0.00 W/m2
01:42 60.7 °F 54.5 °F 29.76 in SSE 4.0 mph 6.0 mph 80 % 0.00 in 0.00 W/m2
01:47 60.6 °F 54.8 °F 29.76 in SSE 1.0 mph 4.0 mph 81 % 0.00 in 0.00 W/m2
01:52 60.5 °F 54.7 °F 29.76 in Calm     81 % 0.00 in 0.00 W/m2
01:57 60.5 °F 54.7 °F 29.76 in SSE 4.0 mph 5.0 mph 81 % 0.00 in 0.00 W/m2
02:02 60.4 °F 54.5 °F 29.76 in SSE 5.0 mph 6.0 mph 81 % 0.00 in 0.00 W/m2
02:07 60.3 °F 54.5 °F 29.76 in SSE 5.0 mph 5.0 mph 81 % 0.00 in 0.00 W/m2
02:12 60.3 °F 54.5 °F 29.77 in SSE 4.0 mph 4.0 mph 81 % 0.00 in 0.00 W/m2
02:17 60.2 °F 54.4 °F 29.77 in SSE 1.0 mph 1.0 mph 81 % 0.00 in 0.00 W/m2
02:22 60.1 °F 54.3 °F 29.76 in SSE 6.0 mph 6.0 mph 81 % 0.00 in 0.00 W/m2
02:27 60.0 °F 54.2 °F 29.76 in SSE 4.0 mph 5.0 mph 81 % 0.00 in 0.00 W/m2
02:32 59.9 °F 54.1 °F 29.76 in Calm   5.0 mph 81 % 0.00 in 0.00 W/m2
02:37 59.8 °F 54.0 °F 29.77 in Calm     81 % 0.00 in 0.00 W/m2
02:42 59.7 °F 53.5 °F 29.76 in Calm     80 % 0.00 in 0.00 W/m2
02:47 59.6 °F 53.4 °F 29.76 in Calm     80 % 0.00 in 0.00 W/m2
02:52 59.6 °F 53.4 °F 29.76 in SSE 6.0 mph 6.0 mph 80 % 0.00 in 0.00 W/m2
02:57 59.5 °F 53.3 °F 29.76 in SSE 2.0 mph 5.0 mph 80 % 0.00 in 0.00 W/m2
03:02 59.4 °F 53.6 °F 29.76 in Calm     81 % 0.00 in 0.00 W/m2
03:07 59.3 °F 53.5 °F 29.76 in Calm     81 % 0.00 in 0.00 W/m2
03:12 59.3 °F 53.5 °F 29.76 in SSE 2.0 mph 5.0 mph 81 % 0.00 in 0.00 W/m2
03:13 59.3 °F 53.5 °F 29.76 in SSE 5.0 mph 5.0 mph 81 % 0.00 in 0.00 W/m2
03:18 59.2 °F 53.7 °F 29.76 in SSE 5.0 mph 6.0 mph 82 % 0.00 in 0.00 W/m2
03:23 59.2 °F 53.7 °F 29.76 in Calm   7.0 mph 82 % 0.00 in 0.00 W/m2
03:28 59.2 °F 53.7 °F 29.76 in SSE 1.0 mph 7.0 mph 82 % 0.00 in 0.00 W/m2
03:33 59.1 °F 53.6 °F 29.76 in SSE 6.0 mph 7.0 mph 82 % 0.00 in 0.00 W/m2
03:38 59.1 °F 53.6 °F 29.76 in SSE 4.0 mph 8.0 mph 82 % 0.00 in 0.00 W/m2
03:43 59.1 °F 54.0 °F 29.76 in SSE 7.0 mph 7.0 mph 83 % 0.00 in 0.00 W/m2
03:48 59.1 °F 54.0 °F 29.76 in SE 4.0 mph 8.0 mph 83 % 0.00 in 0.00 W/m2
03:53 59.1 °F 54.0 °F 29.76 in SE 6.0 mph 9.0 mph 83 % 0.00 in 0.00 W/m2
03:58 59.2 °F 54.0 °F 29.76 in SE 2.0 mph 8.0 mph 83 % 0.00 in 0.00 W/m2
04:03 59.3 °F 54.2 °F 29.77 in Calm   7.0 mph 83 % 0.00 in 0.00 W/m2
04:08 59.2 °F 54.0 °F 29.76 in Calm   4.0 mph 83 % 0.00 in 0.00 W/m2
04:13 59.3 °F 54.2 °F 29.76 in Calm   5.0 mph 83 % 0.00 in 0.00 W/m2
04:18 59.3 °F 54.2 °F 29.77 in Calm   4.0 mph 83 % 0.00 in 0.00 W/m2
04:23 59.4 °F 54.6 °F 29.76 in SE 1.0 mph 5.0 mph 84 % 0.00 in 0.00 W/m2
04:28 59.4 °F 54.6 °F 29.76 in SE 1.0 mph 6.0 mph 84 % 0.00 in 0.00 W/m2
04:33 59.4 °F 54.2 °F 29.77 in SE 6.0 mph 7.0 mph 83 % 0.00 in 0.00 W/m2
04:38 59.4 °F 54.2 °F 29.77 in Calm   6.0 mph 83 % 0.00 in 0.00 W/m2
04:43 59.5 °F 54.3 °F 29.77 in SE 6.0 mph 7.0 mph 83 % 0.00 in 0.00 W/m2
04:48 59.5 °F 54.3 °F 29.77 in SE 8.0 mph 9.0 mph 83 % 0.00 in 0.00 W/m2
04:53 59.5 °F 54.3 °F 29.77 in SE 4.0 mph 9.0 mph 83 % 0.00 in 0.00 W/m2
04:58 59.5 °F 54.3 °F 29.77 in SE 2.0 mph 8.0 mph 83 % 0.00 in 0.00 W/m2
05:03 59.6 °F 54.4 °F 29.77 in SE 8.0 mph 9.0 mph 83 % 0.00 in 0.00 W/m2
05:08 59.6 °F 54.1 °F 29.77 in Calm   9.0 mph 82 % 0.00 in 0.00 W/m2
05:13 59.7 °F 54.2 °F 29.77 in SE 5.0 mph 6.0 mph 82 % 0.00 in 0.00 W/m2
05:18 59.7 °F 54.2 °F 29.77 in SE 6.0 mph 9.0 mph 82 % 0.00 in 0.00 W/m2
05:23 59.8 °F 54.3 °F 29.77 in Calm   5.0 mph 82 % 0.00 in 0.00 W/m2
05:28 59.8 °F 54.3 °F 29.77 in Calm   4.0 mph 82 % 0.00 in 0.00 W/m2
05:33 59.8 °F 54.3 °F 29.77 in Calm     82 % 0.00 in 0.00 W/m2
05:38 59.8 °F 54.3 °F 29.77 in Calm     82 % 0.00 in 0.00 W/m2
05:43 59.9 °F 54.4 °F 29.78 in Calm   1.0 mph 82 % 0.00 in 0.00 W/m2
05:48 59.9 °F 54.4 °F 29.78 in Calm   4.0 mph 82 % 0.00 in 0.00 W/m2
05:53 59.8 °F 54.3 °F 29.78 in SE 5.0 mph 6.0 mph 82 % 0.00 in 0.00 W/m2
05:58 59.8 °F 54.3 °F 29.78 in Calm   4.0 mph 82 % 0.00 in 0.00 W/m2
06:03 59.7 °F 54.2 °F 29.78 in Calm   1.0 mph 82 % 0.00 in 0.00 W/m2
06:08 59.6 °F 54.1 °F 29.79 in Calm     82 % 0.00 in 0.00 W/m2
06:13 59.4 °F 53.9 °F 29.79 in Calm     82 % 0.00 in 0.00 W/m2
06:18 59.2 °F 53.4 °F 29.79 in Calm     81 % 0.00 in 0.00 W/m2
06:23 59.1 °F 53.6 °F 29.80 in Calm     82 % 0.00 in 0.00 W/m2
06:29 58.9 °F 53.4 °F 29.80 in Calm     82 % 0.00 in 0.00 W/m2
06:34 58.8 °F 53.3 °F 29.80 in Calm     82 % 0.00 in 0.00 W/m2
06:39 58.6 °F 53.1 °F 29.80 in Calm     82 % 0.00 in 0.00 W/m2
06:44 58.4 °F 52.9 °F 29.80 in Calm     82 % 0.00 in 5.00 W/m2
06:49 58.2 °F 52.7 °F 29.80 in Calm     82 % 0.00 in 7.00 W/m2
06:54 58.0 °F 52.9 °F 29.80 in Calm     83 % 0.00 in 11.00 W/m2
06:59 57.8 °F 52.3 °F 29.79 in Calm   2.0 mph 82 % 0.00 in 16.00 W/m2
07:04 57.7 °F 52.2 °F 29.79 in SE 2.0 mph 5.0 mph 82 % 0.00 in 19.00 W/m2
07:09 57.5 °F 52.4 °F 29.79 in SE 4.0 mph 6.0 mph 83 % 0.00 in 25.00 W/m2
07:14 57.3 °F 52.2 °F 29.79 in SE 6.0 mph 7.0 mph 83 % 0.00 in 35.00 W/m2
07:19 57.1 °F 52.0 °F 29.79 in SE 4.0 mph 6.0 mph 83 % 0.00 in 49.00 W/m2
07:24 56.9 °F 51.8 °F 29.79 in SE 1.0 mph 6.0 mph 83 % 0.00 in 58.00 W/m2
07:29 56.8 °F 51.7 °F 29.80 in Calm   6.0 mph 83 % 0.00 in 72.00 W/m2
07:34 56.7 °F 51.9 °F 29.81 in Calm     84 % 0.00 in 90.00 W/m2
07:39 56.5 °F 51.7 °F 29.81 in Calm     84 % 0.00 in 104.00 W/m2
07:44 56.4 °F 51.6 °F 29.81 in Calm     84 % 0.00 in 120.00 W/m2
07:49 56.4 °F 51.6 °F 29.81 in Calm     84 % 0.00 in 135.00 W/m2
07:54 56.4 °F 52.0 °F 29.81 in Calm     85 % 0.00 in 149.00 W/m2
07:59 56.4 °F 52.0 °F 29.81 in Calm   4.0 mph 85 % 0.00 in 193.00 W/m2
08:04 56.4 °F 52.0 °F 29.81 in Calm     85 % 0.00 in 229.00 W/m2
08:09 56.6 °F 52.2 °F 29.81 in Calm     85 % 0.00 in 255.00 W/m2
08:14 56.6 °F 52.2 °F 29.81 in SE 2.0 mph 4.0 mph 85 % 0.00 in 279.00 W/m2
08:19 56.8 °F 52.3 °F 29.81 in SE 1.0 mph 5.0 mph 85 % 0.00 in 297.00 W/m2
08:24 56.9 °F 52.4 °F 29.81 in Calm   4.0 mph 85 % 0.00 in 311.00 W/m2
08:29 57.2 °F 52.7 °F 29.82 in Calm   5.0 mph 85 % 0.00 in 116.00 W/m2
08:34 57.4 °F 52.9 °F 29.82 in Calm     85 % 0.00 in 315.00 W/m2
08:39 57.6 °F 53.1 °F 29.83 in Calm     85 % 0.00 in 260.00 W/m2
08:44 57.7 °F 53.2 °F 29.83 in Calm     85 % 0.00 in 378.00 W/m2
08:49 57.7 °F 53.2 °F 29.83 in Calm     85 % 0.00 in 290.00 W/m2
08:54 57.8 °F 53.3 °F 29.83 in Calm     85 % 0.00 in 338.00 W/m2
08:59 57.9 °F 53.1 °F 29.83 in Calm     84 % 0.00 in 330.00 W/m2
09:04 58.0 °F 53.2 °F 29.83 in Calm     84 % 0.00 in 406.00 W/m2
09:09 58.1 °F 53.3 °F 29.83 in Calm     84 % 0.00 in 339.00 W/m2
09:14 58.2 °F 53.4 °F 29.84 in SE 4.0 mph 6.0 mph 84 % 0.00 in 332.00 W/m2
09:19 58.3 °F 53.5 °F 29.84 in Calm     84 % 0.00 in 427.00 W/m2
09:24 58.4 °F 53.6 °F 29.84 in Calm   2.0 mph 84 % 0.00 in 422.00 W/m2
09:29 58.4 °F 53.6 °F 29.84 in Calm     84 % 0.00 in 524.00 W/m2
09:34 58.6 °F 54.1 °F 29.85 in SE 2.0 mph 4.0 mph 85 % 0.00 in 492.00 W/m2
09:39 58.8 °F 54.0 °F 29.84 in Calm   4.0 mph 84 % 0.00 in 548.00 W/m2
09:44 58.9 °F 54.1 °F 29.84 in Calm   5.0 mph 84 % 0.00 in 250.00 W/m2
09:49 59.0 °F 54.2 °F 29.85 in Calm   5.0 mph 84 % 0.00 in 547.00 W/m2
09:54 59.2 °F 54.4 °F 29.84 in Calm   1.0 mph 84 % 0.00 in 541.00 W/m2
09:59 59.4 °F 54.6 °F 29.84 in SE 2.0 mph 5.0 mph 84 % 0.00 in 555.00 W/m2
10:04 59.6 °F 54.4 °F 29.84 in Calm   7.0 mph 83 % 0.00 in 566.00 W/m2
10:09 59.9 °F 54.7 °F 29.85 in Calm   9.0 mph 83 % 0.00 in 580.00 W/m2
10:14 60.1 °F 54.9 °F 29.85 in South 1.0 mph 11.0 mph 83 % 0.00 in 603.00 W/m2
10:19 60.4 °F 55.2 °F 29.85 in South 1.0 mph 8.0 mph 83 % 0.00 in 640.00 W/m2
10:24 60.6 °F 55.4 °F 29.84 in South 4.0 mph 9.0 mph 83 % 0.00 in 510.00 W/m2
10:30 60.8 °F 55.3 °F 29.84 in South 4.0 mph 7.0 mph 82 % 0.00 in 262.00 W/m2
10:35 61.0 °F 55.5 °F 29.85 in Calm   6.0 mph 82 % 0.00 in 294.00 W/m2
10:40 61.1 °F 55.6 °F 29.85 in South 1.0 mph 8.0 mph 82 % 0.00 in 371.00 W/m2
10:45 61.3 °F 55.8 °F 29.84 in SSE 12.0 mph 15.0 mph 82 % 0.00 in 687.00 W/m2
10:50 61.5 °F 56.0 °F 29.85 in SSE 6.0 mph 10.0 mph 82 % 0.00 in 545.00 W/m2
10:55 61.7 °F 56.2 °F 29.85 in South 7.0 mph 10.0 mph 82 % 0.00 in 461.00 W/m2
11:00 61.8 °F 55.9 °F 29.85 in Calm   9.0 mph 81 % 0.00 in 438.00 W/m2
11:05 61.9 °F 56.0 °F 29.85 in South 8.0 mph 8.0 mph 81 % 0.00 in 434.00 W/m2
11:10 62.0 °F 56.1 °F 29.86 in South 7.0 mph 11.0 mph 81 % 0.00 in 411.00 W/m2
11:15 62.1 °F 56.2 °F 29.86 in South 6.0 mph 9.0 mph 81 % 0.00 in 436.00 W/m2
11:20 62.2 °F 56.3 °F 29.86 in Calm   10.0 mph 81 % 0.00 in 362.00 W/m2
11:25 62.3 °F 56.1 °F 29.85 in Calm   6.0 mph 80 % 0.00 in 443.00 W/m2
11:30 62.3 °F 56.1 °F 29.86 in South 6.0 mph 8.0 mph 80 % 0.00 in 403.00 W/m2
11:35 62.5 °F 56.2 °F 29.86 in Calm   10.0 mph 80 % 0.00 in 403.00 W/m2
11:40 62.5 °F 56.2 °F 29.86 in SSW 5.0 mph 6.0 mph 80 % 0.00 in 853.00 W/m2
11:45 62.6 °F 56.3 °F 29.86 in South 10.0 mph 11.0 mph 80 % 0.00 in 455.00 W/m2
11:50 62.8 °F 56.5 °F 29.86 in SSW 1.0 mph 10.0 mph 80 % 0.00 in 817.00 W/m2
11:55 63.0 °F 56.7 °F 29.86 in SSW 4.0 mph 12.0 mph 80 % 0.00 in 807.00 W/m2
12:00 63.3 °F 56.7 °F 29.86 in SSW 2.0 mph 12.0 mph 79 % 0.00 in 867.00 W/m2
12:05 63.4 °F 56.4 °F 29.85 in South 3.0 mph 9.0 mph 78 % 0.00 in 401.00 W/m2
12:10 63.5 °F 56.5 °F 29.85 in South 8.0 mph 12.0 mph 78 % 0.00 in 422.00 W/m2
12:15 63.5 °F 56.5 °F 29.85 in SW 12.0 mph 15.0 mph 78 % 0.00 in 410.00 W/m2
12:20 63.6 °F 56.3 °F 29.86 in SSW 6.0 mph 12.0 mph 77 % 0.00 in 410.00 W/m2
12:25 63.8 °F 56.5 °F 29.85 in SSE 7.0 mph 9.0 mph 77 % 0.00 in 336.00 W/m2
12:30 64.0 °F 56.7 °F 29.85 in South 10.0 mph 11.0 mph 77 % 0.00 in 831.00 W/m2
12:35 64.3 °F 56.6 °F 29.85 in SSW 5.0 mph 14.0 mph 76 % 0.00 in 348.00 W/m2
12:40 64.4 °F 56.7 °F 29.85 in WSW 1.0 mph 12.0 mph 76 % 0.00 in 318.00 W/m2
12:45 64.2 °F 56.1 °F 29.85 in SW 6.0 mph 14.0 mph 75 % 0.00 in 483.00 W/m2
12:50 64.1 °F 56.4 °F 29.85 in Calm   13.0 mph 76 % 0.00 in 698.00 W/m2
12:55 64.0 °F 56.3 °F 29.85 in Calm   14.0 mph 76 % 0.00 in 541.00 W/m2
13:00 64.1 °F 56.4 °F 29.85 in Calm   9.0 mph 76 % 0.00 in 473.00 W/m2
13:05 64.1 °F 56.4 °F 29.86 in SW 6.0 mph 11.0 mph 76 % 0.00 in 383.00 W/m2
13:10 64.1 °F 56.4 °F 29.86 in SSW 3.0 mph 12.0 mph 76 % 0.00 in 380.00 W/m2
13:15 64.1 °F 56.4 °F 29.86 in Calm   7.0 mph 76 % 0.00 in 369.00 W/m2
13:20 64.1 °F 56.4 °F 29.85 in South 7.0 mph 10.0 mph 76 % 0.00 in 446.00 W/m2
13:25 64.1 °F 56.0 °F 29.85 in Calm   11.0 mph 75 % 0.00 in 480.00 W/m2
13:30 64.3 °F 56.2 °F 29.85 in SE 2.0 mph 13.0 mph 75 % 0.00 in 385.00 W/m2
13:35 64.6 °F 56.5 °F 29.85 in SSE 4.0 mph 13.0 mph 75 % 0.00 in 619.00 W/m2
13:40 65.0 °F 56.5 °F 29.85 in SSW 2.0 mph 12.0 mph 74 % 0.00 in 928.00 W/m2
13:45 65.2 °F 56.3 °F 29.85 in Calm   8.0 mph 73 % 0.00 in 420.00 W/m2
13:50 65.4 °F 56.5 °F 29.85 in WSW 9.0 mph 12.0 mph 73 % 0.00 in 408.00 W/m2
13:55 65.3 °F 56.4 °F 29.85 in SSE 6.0 mph 12.0 mph 73 % 0.00 in 427.00 W/m2
14:00 65.3 °F 56.4 °F 29.84 in SSE 5.0 mph 8.0 mph 73 % 0.00 in 452.00 W/m2
14:05 65.3 °F 56.4 °F 29.84 in South 7.0 mph 18.0 mph 73 % 0.00 in 359.00 W/m2
14:10 65.2 °F 56.3 °F 29.85 in South 7.0 mph 13.0 mph 73 % 0.00 in 313.00 W/m2
14:15 65.1 °F 56.6 °F 29.85 in South 3.0 mph 7.0 mph 74 % 0.00 in 332.00 W/m2
14:20 65.1 °F 56.6 °F 29.85 in SW 7.0 mph 11.0 mph 74 % 0.00 in 373.00 W/m2
14:25 65.1 °F 56.6 °F 29.85 in SW 3.0 mph 8.0 mph 74 % 0.00 in 313.00 W/m2
14:30 65.0 °F 56.5 °F 29.85 in SSW 7.0 mph 11.0 mph 74 % 0.00 in 274.00 W/m2
14:35 64.9 °F 56.8 °F 29.85 in SW 6.0 mph 15.0 mph 75 % 0.00 in 311.00 W/m2
14:40 64.7 °F 56.6 °F 29.84 in South 8.0 mph 11.0 mph 75 % 0.00 in 329.00 W/m2
14:45 64.6 °F 56.5 °F 29.84 in South 4.0 mph 13.0 mph 75 % 0.00 in 330.00 W/m2
14:50 64.5 °F 56.4 °F 29.84 in SSW 8.0 mph 13.0 mph 75 % 0.00 in 392.00 W/m2
14:55 64.4 °F 56.3 °F 29.84 in SSW 5.0 mph 9.0 mph 75 % 0.00 in 406.00 W/m2
15:00 64.4 °F 56.7 °F 29.84 in South 7.0 mph 10.0 mph 76 % 0.00 in 306.00 W/m2
15:05 64.4 °F 56.7 °F 29.84 in Calm   8.0 mph 76 % 0.00 in 318.00 W/m2
15:10 64.5 °F 56.8 °F 29.84 in Calm   7.0 mph 76 % 0.00 in 225.00 W/m2
15:16 64.5 °F 56.8 °F 29.84 in Calm   6.0 mph 76 % 0.00 in 158.00 W/m2
15:21 64.6 °F 56.9 °F 29.84 in SW 5.0 mph 9.0 mph 76 % 0.00 in 311.00 W/m2
15:26 64.6 °F 56.5 °F 29.84 in SSW 5.0 mph 14.0 mph 75 % 0.00 in 216.00 W/m2
15:31 64.7 °F 56.6 °F 29.84 in Calm   10.0 mph 75 % 0.00 in 257.00 W/m2
15:36 64.8 °F 56.3 °F 29.84 in SW 9.0 mph 11.0 mph 74 % 0.00 in 251.00 W/m2
15:41 64.8 °F 56.0 °F 29.84 in Calm   9.0 mph 73 % 0.00 in 197.00 W/m2
15:46 64.9 °F 56.4 °F 29.84 in SSW 7.0 mph 7.0 mph 74 % 0.00 in 457.00 W/m2
15:51 65.0 °F 56.5 °F 29.84 in South 1.0 mph 1.0 mph 74 % 0.00 in 448.00 W/m2
15:56 65.3 °F 56.4 °F 29.84 in SSW 7.0 mph 9.0 mph 73 % 0.00 in 229.00 W/m2
16:01 65.5 °F 56.6 °F 29.84 in SSE 4.0 mph 6.0 mph 73 % 0.00 in 281.00 W/m2
16:06 65.7 °F 56.0 °F 29.84 in SSW 7.0 mph 10.0 mph 71 % 0.00 in 664.00 W/m2
16:11 65.9 °F 56.2 °F 29.84 in SW 4.0 mph 7.0 mph 71 % 0.00 in 608.00 W/m2
16:16 66.2 °F 56.1 °F 29.84 in SSW 5.0 mph 8.0 mph 70 % 0.00 in 519.00 W/m2
16:21 66.3 °F 56.2 °F 29.85 in SW 2.0 mph 4.0 mph 70 % 0.00 in 267.00 W/m2
16:26 66.4 °F 55.9 °F 29.85 in Calm   2.0 mph 69 % 0.00 in 181.00 W/m2
16:31 66.4 °F 56.3 °F 29.84 in Calm     70 % 0.00 in 155.00 W/m2
16:36 66.5 °F 56.4 °F 29.84 in SSW 2.0 mph 5.0 mph 70 % 0.00 in 422.00 W/m2
16:41 66.5 °F 56.4 °F 29.84 in Calm     70 % 0.00 in 483.00 W/m2
16:46 66.5 °F 56.4 °F 29.84 in SW 6.0 mph 8.0 mph 70 % 0.00 in 427.00 W/m2
16:51 66.5 °F 56.4 °F 29.84 in Calm   3.0 mph 70 % 0.00 in 397.00 W/m2
16:56 66.5 °F 56.0 °F 29.84 in SW 8.0 mph 10.0 mph 69 % 0.00 in 364.00 W/m2
17:01 66.6 °F 56.5 °F 29.84 in SSW 4.0 mph 6.0 mph 70 % 0.00 in 390.00 W/m2
17:06 66.5 °F 56.0 °F 29.84 in Calm   6.0 mph 69 % 0.00 in 346.00 W/m2
17:11 66.5 °F 56.0 °F 29.84 in South 7.0 mph 10.0 mph 69 % 0.00 in 327.00 W/m2
17:16 66.5 °F 56.0 °F 29.84 in SW 3.0 mph 3.0 mph 69 % 0.00 in 315.00 W/m2
17:21 66.5 °F 56.4 °F 29.85 in SW 2.0 mph 7.0 mph 70 % 0.00 in 323.00 W/m2
17:26 66.5 °F 56.0 °F 29.85 in Calm   4.0 mph 69 % 0.00 in 279.00 W/m2
17:31 66.5 °F 56.0 °F 29.85 in SW 4.0 mph 7.0 mph 69 % 0.00 in 248.00 W/m2
17:36 66.5 °F 56.0 °F 29.85 in SW 2.0 mph 7.0 mph 69 % 0.00 in 227.00 W/m2
17:41 66.5 °F 56.0 °F 29.85 in Calm   1.0 mph 69 % 0.00 in 185.00 W/m2
17:46 66.4 °F 56.3 °F 29.85 in SSW 5.0 mph 9.0 mph 70 % 0.00 in 193.00 W/m2
17:51 66.4 °F 55.9 °F 29.85 in Calm   5.0 mph 69 % 0.00 in 178.00 W/m2
17:56 66.3 °F 55.8 °F 29.85 in Calm     69 % 0.00 in 162.00 W/m2
18:01 66.3 °F 56.2 °F 29.85 in Calm     70 % 0.00 in 144.00 W/m2
18:06 66.2 °F 56.1 °F 29.85 in Calm     70 % 0.00 in 125.00 W/m2
18:11 66.1 °F 56.0 °F 29.85 in Calm   1.0 mph 70 % 0.00 in 118.00 W/m2
18:16 66.0 °F 56.3 °F 29.85 in Calm     71 % 0.00 in 98.00 W/m2
18:21 65.9 °F 56.2 °F 29.85 in Calm     71 % 0.00 in 88.00 W/m2
18:26 65.8 °F 56.2 °F 29.85 in Calm     71 % 0.00 in 74.00 W/m2
18:31 65.6 °F 56.3 °F 29.86 in Calm   1.0 mph 72 % 0.00 in 62.00 W/m2
18:36 65.4 °F 56.2 °F 29.85 in SSW 2.0 mph 5.0 mph 72 % 0.00 in 49.00 W/m2
18:40 65.3 °F 56.0 °F 29.86 in Calm   5.0 mph 72 % 0.00 in 40.00 W/m2
18:45 65.1 °F 56.2 °F 29.86 in Calm   5.0 mph 73 % 0.00 in 32.00 W/m2
18:50 64.9 °F 56.0 °F 29.86 in Calm   1.0 mph 73 % 0.00 in 23.00 W/m2
18:55 64.7 °F 55.9 °F 29.86 in Calm     73 % 0.00 in 18.00 W/m2
19:00 64.5 °F 56.0 °F 29.86 in Calm     74 % 0.00 in 14.00 W/m2
19:05 64.4 °F 55.9 °F 29.86 in Calm     74 % 0.00 in 12.00 W/m2
19:10 64.2 °F 55.8 °F 29.86 in Calm     74 % 0.00 in 9.00 W/m2
19:15 64.0 °F 55.6 °F 29.86 in Calm     74 % 0.00 in 5.00 W/m2
19:16 64.0 °F 55.6 °F 29.86 in Calm     74 % 0.00 in 5.00 W/m2
19:21 63.8 °F 55.7 °F 29.86 in Calm     75 % 0.00 in 0.00 W/m2
19:26 63.6 °F 55.5 °F 29.86 in Calm     75 % 0.00 in 0.00 W/m2
19:31 63.4 °F 55.3 °F 29.86 in Calm     75 % 0.00 in 0.00 W/m2
19:36 63.1 °F 55.1 °F 29.86 in SSW 2.0 mph 4.0 mph 75 % 0.00 in 0.00 W/m2
19:41 62.8 °F 55.1 °F 29.86 in SSW 2.0 mph 3.0 mph 76 % 0.00 in 0.00 W/m2
19:46 62.6 °F 54.9 °F 29.86 in Calm     76 % 0.00 in 0.00 W/m2
19:51 62.4 °F 54.8 °F 29.86 in Calm   1.0 mph 76 % 0.00 in 0.00 W/m2
19:56 62.2 °F 54.9 °F 29.86 in SSW 2.0 mph 3.0 mph 77 % 0.00 in 0.00 W/m2
20:01 62.0 °F 54.7 °F 29.87 in SSW 2.0 mph 4.0 mph 77 % 0.00 in 0.00 W/m2
20:06 61.8 °F 54.5 °F 29.87 in South 4.0 mph 6.0 mph 77 % 0.00 in 0.00 W/m2
20:11 61.7 °F 54.4 °F 29.87 in Calm     77 % 0.00 in 0.00 W/m2
20:20 61.4 °F 54.5 °F 29.87 in South 2.0 mph 6.0 mph 78 % 0.00 in 0.00 W/m2
20:21 61.4 °F 54.5 °F 29.87 in Calm     78 % 0.00 in 0.00 W/m2
20:24 61.3 °F 54.4 °F 29.87 in Calm   7.0 mph 78 % 0.00 in 0.00 W/m2
20:26 61.3 °F 54.4 °F 29.87 in South 6.0 mph 6.0 mph 78 % 0.00 in 0.00 W/m2
20:27 61.3 °F 54.4 °F 29.87 in South 2.0 mph 6.0 mph 78 % 0.00 in 0.00 W/m2
20:29 61.2 °F 54.3 °F 29.87 in South 5.0 mph 7.0 mph 78 % 0.00 in 0.00 W/m2
20:34 61.1 °F 54.2 °F 29.87 in South 7.0 mph 7.0 mph 78 % 0.00 in 0.00 W/m2
20:39 61.0 °F 54.1 °F 29.87 in South 5.0 mph 7.0 mph 78 % 0.00 in 0.00 W/m2
20:44 60.9 °F 54.3 °F 29.88 in SSE 2.0 mph 7.0 mph 79 % 0.00 in 0.00 W/m2
20:49 60.8 °F 54.3 °F 29.88 in SSE 6.0 mph 8.0 mph 79 % 0.00 in 0.00 W/m2
20:54 60.7 °F 54.2 °F 29.88 in SSE 5.0 mph 7.0 mph 79 % 0.00 in 0.00 W/m2
20:59 60.7 °F 54.2 °F 29.88 in SSE 4.0 mph 9.0 mph 79 % 0.00 in 0.00 W/m2
21:04 60.7 °F 54.2 °F 29.88 in SSE 2.0 mph 8.0 mph 79 % 0.00 in 0.00 W/m2
21:09 60.6 °F 54.1 °F 29.88 in SSE 1.0 mph 9.0 mph 79 % 0.00 in 0.00 W/m2
21:14 60.7 °F 54.2 °F 29.88 in Calm   8.0 mph 79 % 0.00 in 0.00 W/m2
21:19 60.6 °F 54.1 °F 29.88 in Calm   4.0 mph 79 % 0.00 in 0.00 W/m2
21:24 60.5 °F 54.0 °F 29.88 in Calm   4.0 mph 79 % 0.00 in 0.00 W/m2
21:29 60.4 °F 53.9 °F 29.88 in Calm   6.0 mph 79 % 0.00 in 0.00 W/m2
21:34 60.3 °F 54.1 °F 29.88 in SSE 2.0 mph 6.0 mph 80 % 0.00 in 0.00 W/m2
21:39 60.3 °F 54.1 °F 29.88 in SSE 5.0 mph 6.0 mph 80 % 0.00 in 0.00 W/m2
21:44 60.3 °F 53.8 °F 29.88 in SSE 2.0 mph 5.0 mph 79 % 0.00 in 0.00 W/m2
21:49 60.2 °F 54.0 °F 29.88 in Calm   5.0 mph 80 % 0.00 in 0.00 W/m2
21:54 60.1 °F 53.9 °F 29.88 in SSE 2.0 mph 6.0 mph 80 % 0.00 in 0.00 W/m2
21:59 60.1 °F 53.9 °F 29.89 in Calm   6.0 mph 80 % 0.00 in 0.00 W/m2
22:04 60.0 °F 53.8 °F 29.89 in Calm   5.0 mph 80 % 0.00 in 0.00 W/m2
22:09 59.9 °F 53.7 °F 29.89 in Calm   5.0 mph 80 % 0.00 in 0.00 W/m2
22:14 59.7 °F 53.5 °F 29.89 in Calm   4.0 mph 80 % 0.00 in 0.00 W/m2
22:19 59.5 °F 53.7 °F 29.89 in Calm   4.0 mph 81 % 0.00 in 0.00 W/m2
22:22 59.4 °F 53.6 °F 29.89 in Calm     81 % 0.00 in 0.00 W/m2
22:27 59.3 °F 53.5 °F 29.89 in SSE 4.0 mph 5.0 mph 81 % 0.00 in 0.00 W/m2
22:32 59.3 °F 53.5 °F 29.89 in SSE 4.0 mph 6.0 mph 81 % 0.00 in 0.00 W/m2
22:37 59.2 °F 53.4 °F 29.88 in SSE 4.0 mph 6.0 mph 81 % 0.00 in 0.00 W/m2
22:42 59.1 °F 53.3 °F 29.88 in Calm   1.0 mph 81 % 0.00 in 0.00 W/m2
22:47 59.1 °F 53.3 °F 29.88 in Calm     81 % 0.00 in 0.00 W/m2
22:52 59.0 °F 53.2 °F 29.88 in Calm     81 % 0.00 in 0.00 W/m2
22:57 58.8 °F 53.3 °F 29.88 in Calm     82 % 0.00 in 0.00 W/m2
23:02 58.6 °F 53.1 °F 29.88 in Calm     82 % 0.00 in 0.00 W/m2
23:07 58.5 °F 53.0 °F 29.88 in Calm     82 % 0.00 in 0.00 W/m2
23:12 58.3 °F 52.8 °F 29.88 in Calm     82 % 0.00 in 0.00 W/m2
23:17 58.3 °F 53.2 °F 29.88 in Calm     83 % 0.00 in 0.00 W/m2
23:22 58.3 °F 53.2 °F 29.88 in Calm     83 % 0.00 in 0.00 W/m2
23:27 58.2 °F 53.1 °F 29.88 in Calm     83 % 0.00 in 0.00 W/m2
23:32 58.2 °F 53.1 °F 29.88 in Calm     83 % 0.00 in 0.00 W/m2
23:37 58.1 °F 53.0 °F 29.89 in Calm     83 % 0.00 in 0.00 W/m2
23:42 58.1 °F 53.0 °F 29.88 in Calm     83 % 0.00 in 0.00 W/m2
23:47 58.1 °F 53.0 °F 29.88 in Calm     83 % 0.00 in 0.00 W/m2
23:52 58.0 °F 52.9 °F 29.89 in Calm     83 % 0.00 in 0.00 W/m2
23:57 57.8 °F 52.7 °F 29.89 in Calm     83 % 0.00 in 0.00 W/m2
Juneau County Weather
Compliments of Weather Underground - 4.5 mb
 WU-history PHP script courtesy of   Juneau County Weather.
powered by Cumulus v1.9.3 (1059)
Ambient Weather VWS v14.00
Top Contact Website Map Copyright © 2007 - 2018 Foresthillweather.com Never base important decisions on this or any weather information obtained from the Internet